This is the latest recevied weather packets stored in our database for station/object OE-11372. If no packets are shown the sender has not sent any weather packets the latest 10 day(s).
| Time | Temp. | Humidity | Pressure | Rain* | Wind** | Luminosity | Snow |
|---|---|---|---|---|---|---|---|
| 1787923503 | 29.44° C | 35% | 852.2 hPa | 0 mm | - | 313 W/m² | - |
| 1787922674 | 29.44° C | 34% | 852.2 hPa | 0 mm | - | 231 W/m² | - |
| 1787922302 | 29.44° C | 34% | 852.3 hPa | 0 mm | - | 288 W/m² | - |
| 1787921703 | 29.44° C | 35% | 852.3 hPa | 0 mm | - | 272 W/m² | - |
| 1787920875 | 29.44° C | 32% | 852.3 hPa | 0 mm | - | 313 W/m² | - |
| 1787920503 | 30° C | 33% | 852.4 hPa | 0 mm | - | 346 W/m² | - |
| 1787919903 | 30° C | 30% | 852.6 hPa | 0 mm | - | 560 W/m² | - |
| 1787919075 | 30° C | 32% | 852.4 hPa | 0 mm | - | 470 W/m² | - |
| 1787918702 | 30° C | 31% | 852.3 hPa | 0 mm | - | 461 W/m² | - |
| 1787918102 | 29.44° C | 32% | 852.4 hPa | 0 mm | - | 362 W/m² | - |
| 1787917275 | 30° C | 33% | 852.3 hPa | 0 mm | - | 511 W/m² | - |
| 1787916903 | 29.44° C | 31% | 852.3 hPa | 0 mm | - | 428 W/m² | - |
| 1787916303 | 28.89° C | 33% | 852.4 hPa | 0 mm | - | 354 W/m² | - |
| 1787915475 | 28.89° C | 32% | 852.4 hPa | 0 mm | - | 346 W/m² | - |
| 1787915103 | 28.33° C | 35% | 852.3 hPa | 0 mm | - | 329 W/m² | - |
| 1787914503 | 28.33° C | 34% | 852.2 hPa | 0 mm | - | 288 W/m² | - |
| 1787913676 | 28.89° C | 33% | 852.1 hPa | 0 mm | - | 321 W/m² | - |
| 1787913303 | 28.89° C | 32% | 852.2 hPa | 0 mm | - | 470 W/m² | - |
| 1787912703 | 28.89° C | 32% | 852 hPa | 0 mm | - | 453 W/m² | - |
| 1787911876 | 29.44° C | 30% | 852 hPa | 0 mm | - | 750 W/m² | - |
| 1787911503 | 28.89° C | 32% | 851.9 hPa | 0 mm | - | 494 W/m² | - |
| 1787910902 | 28.89° C | 31% | 852.2 hPa | 0 mm | - | 618 W/m² | - |
| 1787910076 | 29.44° C | 29% | 852.3 hPa | 0 mm | - | 725 W/m² | - |
| 1787909703 | 28.89° C | 30% | 852.1 hPa | 0 mm | - | 675 W/m² | - |
| 1787909103 | 27.78° C | 34% | 852.3 hPa | 0 mm | - | 659 W/m² | - |
* Rain latest hour (hover to see other rain measurements)
** Current wind speed in m/s (hover to see current wind gust speed)